• Join FlightAware (Why Join?)
  • Login
  • US Flag 
01:52AM EDT


 

Airport Tracker/Info


-or-


 

Live Flight TrackerFlight Track Log ✈ SKW2901 ✈ 24-Apr-2013 ✈ KSLC - KPHX

Flight Track Log - Related Links

Times and Time Zones

All times are in EDT time to prevent confusion due to time zone crossing. See the SKW2901 flight status page for this flight to view local times or setup timezone preferences in your user account.

Time Position Orientation Groundspeed Altitude Reporting Facility
EDT Latitude Longitude Course Direction KTS MPH feet Rate Location/Type
10:32AM 40.8014 -111.9642 298° West 186 214 4,700  Level Salt Lake Center
10:33AM 40.8267 -112.0264 298° West 208 239 7,000 1,920 Climbing Salt Lake Center
10:34AM 40.8264 -112.0639 269° West 225 259 7,900 2,100 Climbing Salt Lake Center
10:34AM 40.8267 -112.1256 270° West 267 307 9,400 2,340 Climbing Salt Lake Center
10:35AM 40.8192 -112.1639 256° West 275 316 10,300 1,560 Climbing Salt Lake Center
10:35AM 40.8058 -112.2289 255° West 289 333 11,000 660 Climbing Salt Lake Center
10:36AM 40.7797 -112.2519 214° Southwest 296 341 11,000 120 Level Salt Lake Center
10:36AM 40.7519 -112.2725 209° Southwest 307 353 11,100  Climbing Salt Lake Center
10:37AM 40.6972 -112.2875 192° South 315 362 11,000 480 Descending Salt Lake Center
10:37AM 40.6583 -112.3008 195° South 327 376 11,700 1,860 Climbing Salt Lake Center
10:38AM 40.6053 -112.3056 184° South 333 383 12,900 2,100 Climbing Salt Lake Center
10:39AM 40.5103 -112.3219 187° South 343 395 15,300 2,340 Climbing Salt Lake Center
10:40AM 40.3919 -112.3483 190° South 359 413 17,800 2,040 Climbing Salt Lake Center
10:41AM 40.2958 -112.3861 197° South 361 415 19,500 1,740 Climbing Salt Lake Center
10:42AM 40.2081 -112.4503 209° Southwest 362 417 21,400 1,500 Climbing Salt Lake Center
10:43AM 40.1183 -112.5131 208° Southwest 365 420 22,600 1,080 Climbing Salt Lake Center
10:44AM 40.0247 -112.5794 209° Southwest 382 440 23,700 1,140 Climbing Salt Lake Center
10:45AM 39.9297 -112.6450 208° Southwest 385 443 25,000 1,380 Climbing Salt Lake Center
10:46AM 39.8361 -112.7081 207° Southwest 379 436 26,600 1,500 Climbing Salt Lake Center
10:47AM 39.7442 -112.7711 208° Southwest 368 423 28,100 1,200 Climbing Salt Lake Center
10:48AM 39.6308 -112.8247 200° South 371 427 29,200 900 Climbing Salt Lake Center
10:49AM 39.5236 -112.8417 187° South 387 445 30,000 780 Climbing Salt Lake Center
10:50AM 39.4167 -112.8569 186° South 387 445 30,900 840 Climbing Salt Lake Center
10:51AM 39.3114 -112.8731 187° South 382 440 31,800 480 Climbing Salt Lake Center
10:52AM 39.2072 -112.8897 187° South 378 435 32,000 60 Climbing Salt Lake Center
10:53AM 39.0989 -112.9061 187° South 388 447 32,000  Level Salt Lake Center
10:54AM 38.9894 -112.9233 187° South 395 455 32,000  Level Salt Lake Center
10:55AM 38.8547 -112.9422 186° South 404 465 32,000  Level Salt Lake Center
10:56AM 38.7417 -112.9569 186° South 408 470 32,000  Level Salt Lake Center
10:57AM 38.6264 -112.9742 187° South 414 476 32,000  Level Salt Lake Center
10:58AM 38.5117 -112.9917 187° South 415 478 32,000  Level Salt Lake Center
10:59AM 38.3944 -112.9942 181° South 419 482 32,100 480 Climbing Salt Lake Center
11:00AM 38.2803 -112.9261 155° Southeast 445 512 33,000 420 Climbing Salt Lake Center
11:01AM 38.1789 -112.8189 140° Southeast 467 537 33,000  Level Salt Lake Center
11:02AM 38.0522 -112.6917 142° Southeast 479 551 33,000  Level Salt Lake Center
11:03AM 37.9339 -112.6472 163° South 441 507 33,000  Level Salt Lake Center
11:04AM 37.8142 -112.6331 175° South 430 495 33,000  Level Salt Lake Center
11:05AM 37.6967 -112.6161 173° South 424 488 33,000  Level Salt Lake Center
11:06AM 37.5767 -112.6003 174° South 424 488 33,000  Level Salt Lake Center
11:07AM 37.4558 -112.5836 174° South 428 493 33,000  Level Salt Lake Center
11:09AM 37.3361 -112.5678 174° South 429 494 33,000  Level Salt Lake Center
11:09AM 37.2875 -112.5611 174° South 428 493 33,000  Level Los Angeles Center
11:11AM 37.0969 -112.5356 174° South 431 496 33,000  Level Salt Lake Center
11:11AM 37.0247 -112.5261 174° South 431 496 33,000  Level Los Angeles Center
11:12AM 36.9039 -112.5111 174° South 434 499 33,000  Level Los Angeles Center
11:13AM 36.7844 -112.4942 174° South 431 496 33,000  Level Los Angeles Center
11:14AM 36.6639 -112.4789 174° South 433 498 33,000  Level Los Angeles Center
11:15AM 36.5439 -112.4631 174° South 433 498 33,000  Level Los Angeles Center
11:16AM 36.4242 -112.4469 174° South 432 497 33,000  Level Los Angeles Center
11:17AM 36.3047 -112.4311 174° South 431 496 33,000 -360 Level Los Angeles Center
11:18AM 36.1589 -112.4119 174° South 437 503 32,300 -960 Descending Los Angeles Center
11:19AM 36.0378 -112.4033 177° South 436 502 31,100 -1,200 Descending Los Angeles Center
11:20AM 35.9311 -112.4086 182° South 436 502 29,900 -1,020 Descending Los Angeles Center
11:21AM 35.7864 -112.4147 182° South 434 499 29,000 -480 Descending Los Angeles Center
11:22AM 35.6675 -112.4211 182° South 427 491 29,000  Level Los Angeles Center
11:23AM 35.5481 -112.4275 182° South 427 491 29,000  Level Los Angeles Center
11:24AM 35.4300 -112.4372 184° South 423 487 29,000  Level Los Angeles Center
11:25AM 35.3339 -112.4236 173° South 429 494 29,000  Level Albuquerque Center
11:26AM 35.1900 -112.3931 170° South 433 498 29,000 -420 Level Albuquerque Center
11:27AM 35.0736 -112.3697 171° South 426 490 28,200 -1,200 Descending Albuquerque Center
11:28AM 34.9572 -112.3431 169° South 425 489 26,600 -1,620 Descending Albuquerque Center
11:29AM 34.8458 -112.3203 170° South 412 474 24,900 -1,620 Descending Albuquerque Center
11:30AM 34.7356 -112.2969 170° South 397 457 23,300 -1,560 Descending Albuquerque Center
11:32AM 34.6317 -112.2733 169° South 386 444 21,700 -1,560 Descending Albuquerque Center
11:33AM 34.5311 -112.2514 170° South 372 428 20,100 -1,740 Descending Albuquerque Center
11:34AM 34.4153 -112.2247 169° South 356 410 18,200 -1,500 Descending Albuquerque Center
11:35AM 34.3217 -112.1992 167° South 349 402 17,100 -1,140 Descending Albuquerque Center
11:36AM 34.2300 -112.1742 167° South 341 392 15,900 -1,200 Descending Albuquerque Center
11:37AM 34.1431 -112.1528 168° South 324 373 14,700 -1,200 Descending Albuquerque Center
11:38AM 34.0592 -112.1394 172° South 308 354 13,500 -1,500 Descending Albuquerque Center
11:39AM 33.9669 -112.1503 186° South 280 322 11,700 -1,560 Descending Albuquerque Center
11:40AM 33.8903 -112.1592 185° South 278 320 10,300 -1,260 Descending Albuquerque Center
11:41AM 33.8172 -112.1753 190° South 269 310 9,200 -1,080 Descending Albuquerque Center
11:42AM 33.7481 -112.1897 190° South 257 296 8,100 -600 Descending Albuquerque Center
11:43AM 33.6842 -112.2042 191° South 235 270 8,000 -60 Descending Albuquerque Center
11:44AM 33.6103 -112.2192 190° South 226 260 8,000 -720 Level Albuquerque Center
11:45AM 33.5489 -112.2314 189° South 225 259 6,600 -1,380 Descending Albuquerque Center
11:46AM 33.4881 -112.2456 191° South 223 257 5,200 -1,260 Descending Albuquerque Center
11:47AM 33.4458 -112.2069 143° Southeast 225 259 4,100 -960 Descending Albuquerque Center
11:48AM 33.4411 -112.1431 95° East 196 226 3,300 -960 Descending Albuquerque Center
11:49AM 33.4408 -112.0764 90° East 168 193 2,100 -1,020 Descending Albuquerque Center
11:50AM 33.4411 -112.0322 90° East 138 159 1,300 -780 Descending Albuquerque Center
11:52AM 33.4343 -112.0116 112° Southeast  Level Estimated